Time;durP1;ratioP1;P1;durP2;ratioP2;P2;SDS_P1;SDS_P2;PMS_P1;PMS_P2;Temp;Humidity;BMP_temperature;BMP_pressure;BME280_temperature;BME280_humidity;BME280_pressure;Samples;Min_cycle;Max_cycle;Signal;HPM_P1;HPM_P2
2022/09/12 00:02:04;;;;;;;11.02;8.10;;;16.20;99.90;;;;;;5102612;27;38092;-59
2022/09/12 00:04:31;;;;;;;11.63;8.65;;;16.20;99.90;;;;;;5101073;27;38865;-58
2022/09/12 00:07:00;;;;;;;7.47;5.43;;;16.20;99.90;;;;;;5103484;27;36329;-58
2022/09/12 00:09:27;;;;;;;9.85;5.53;;;16.10;99.90;;;;;;5103733;27;38448;-59
2022/09/12 00:11:55;;;;;;;9.95;8.32;;;16.10;99.90;;;;;;5103297;27;39922;-59
2022/09/12 00:14:22;;;;;;;9.82;8.10;;;16.00;99.90;;;;;;5103906;27;38855;-58
2022/09/12 00:16:49;;;;;;;9.85;7.85;;;16.00;99.90;;;;;;5104645;27;35477;-58
2022/09/12 00:19:17;;;;;;;11.88;8.95;;;15.90;99.90;;;;;;5105202;27;37631;-58
2022/09/12 00:21:45;;;;;;;9.77;8.23;;;15.90;99.90;;;;;;5103861;27;39378;-58
2022/09/12 00:24:13;;;;;;;12.50;8.57;;;15.90;99.90;;;;;;5104271;27;38559;-58
2022/09/12 00:26:41;;;;;;;11.18;7.90;;;15.90;99.90;;;;;;5102191;27;37252;-58
2022/09/12 00:29:08;;;;;;;12.55;9.82;;;15.90;99.90;;;;;;5103917;27;37548;-58
2022/09/12 00:31:35;;;;;;;9.45;8.18;;;15.90;99.90;;;;;;5104942;27;39017;-58
2022/09/12 00:34:03;;;;;;;14.68;9.68;;;15.90;99.90;;;;;;5106913;27;38771;-59
2022/09/12 00:36:30;;;;;;;9.82;8.75;;;15.90;99.90;;;;;;5108415;27;36785;-59
2022/09/12 00:38:58;;;;;;;12.43;9.05;;;15.90;99.90;;;;;;5108393;27;39378;-58
2022/09/12 00:41:29;;;;;;;11.38;9.95;;;15.90;99.90;;;;;;5106060;27;38042;-58
2022/09/12 00:43:59;;;;;;;10.00;8.77;;;15.90;99.90;;;;;;5106466;27;37724;-58
2022/09/12 00:46:34;;;;;;;11.23;9.30;;;15.90;99.90;;;;;;5107570;27;37257;-59
2022/09/12 00:49:05;;;;;;;11.30;9.45;;;15.90;99.90;;;;;;5107065;27;37138;-58
2022/09/12 00:51:35;;;;;;;10.32;9.32;;;15.90;99.90;;;;;;5107451;27;38108;-58
2022/09/12 00:54:08;;;;;;;13.50;8.85;;;15.90;99.90;;;;;;5104945;27;36512;-58
2022/09/12 00:56:39;;;;;;;10.90;8.70;;;15.90;99.90;;;;;;5107490;27;38079;-58
2022/09/12 00:59:12;;;;;;;12.38;9.02;;;15.90;99.90;;;;;;5105254;27;38992;-58
2022/09/12 01:01:41;;;;;;;11.95;9.10;;;15.90;99.90;;;;;;5106435;27;37036;-60
2022/09/12 01:04:09;;;;;;;10.20;8.13;;;15.80;99.90;;;;;;5106710;27;36830;-61
2022/09/12 01:06:40;;;;;;;9.05;7.72;;;15.80;99.90;;;;;;5106982;27;35270;-61
2022/09/12 01:09:09;;;;;;;10.60;8.95;;;15.80;99.90;;;;;;5107080;27;37638;-61
2022/09/12 01:11:40;;;;;;;9.50;8.50;;;15.80;99.90;;;;;;5104862;27;37073;-62
2022/09/12 01:14:07;;;;;;;9.02;8.00;;;15.70;99.90;;;;;;5106720;27;37686;-58
2022/09/12 01:16:36;;;;;;;9.35;7.70;;;15.60;99.90;;;;;;5106675;27;36617;-58
2022/09/12 01:19:17;;;;;;;9.23;8.23;;;15.60;99.90;;;;;;5106216;27;38920;-58
2022/09/12 01:21:53;;;;;;;9.40;8.18;;;15.60;99.90;;;;;;5107612;27;38479;-58
2022/09/12 01:24:56;;;;;;;12.70;8.10;;;15.50;99.90;;;;;;5106630;27;39176;-58
2022/09/12 01:27:49;;;;;;;8.02;6.47;;;15.50;99.90;;;;;;5100270;27;37224;-61
2022/09/12 01:30:38;;;;;;;8.88;7.35;;;15.40;99.90;;;;;;5105759;27;38452;-61
2022/09/12 01:33:25;;;;;;;9.98;8.23;;;15.30;99.90;;;;;;5105001;27;38635;-61
2022/09/12 01:36:07;;;;;;;8.10;7.05;;;15.40;99.90;;;;;;5107265;27;37567;-61
2022/09/12 01:38:38;;;;;;;10.23;7.78;;;15.30;99.90;;;;;;5107061;27;37869;-61
2022/09/12 01:41:14;;;;;;;8.68;7.50;;;15.30;99.90;;;;;;5105590;27;37006;-61
2022/09/12 01:43:49;;;;;;;10.45;7.45;;;15.30;99.90;;;;;;5104827;27;37005;-61
2022/09/12 01:46:23;;;;;;;7.78;6.75;;;15.20;99.90;;;;;;5106549;27;37891;-61
2022/09/12 01:48:56;;;;;;;8.77;7.15;;;15.30;99.90;;;;;;5106696;27;35400;-61
2022/09/12 01:51:28;;;;;;;9.75;8.07;;;15.30;99.90;;;;;;5106238;27;37340;-61
2022/09/12 01:54:02;;;;;;;9.07;7.53;;;15.30;99.90;;;;;;5106514;27;38416;-61
2022/09/12 01:56:34;;;;;;;10.43;8.00;;;15.30;99.90;;;;;;5105335;27;39561;-61
2022/09/12 01:59:06;;;;;;;10.13;9.13;;;15.30;99.90;;;;;;5105830;27;36727;-62
2022/09/12 02:01:40;;;;;;;9.52;8.30;;;15.30;99.90;;;;;;5105956;27;36275;-61
2022/09/12 02:04:13;;;;;;;9.73;8.30;;;15.40;99.90;;;;;;5106368;27;37642;-61
2022/09/12 02:06:48;;;;;;;8.77;7.78;;;15.40;99.90;;;;;;5106244;27;37929;-61
2022/09/12 02:09:21;;;;;;;10.90;8.65;;;15.40;99.90;;;;;;5104892;27;36655;-61
2022/09/12 02:11:52;;;;;;;9.35;7.50;;;15.40;99.90;;;;;;5105825;27;38548;-61
2022/09/12 02:14:24;;;;;;;9.25;6.90;;;15.30;99.90;;;;;;5107104;27;39583;-61
2022/09/12 02:16:56;;;;;;;10.27;7.55;;;15.30;99.90;;;;;;5106727;27;40092;-61
2022/09/12 02:19:29;;;;;;;11.57;7.97;;;15.30;99.90;;;;;;5105093;27;35375;-61
2022/09/12 02:22:00;;;;;;;46.45;9.77;;;15.30;99.90;;;;;;5106296;27;39563;-61
2022/09/12 02:24:30;;;;;;;34.13;8.38;;;15.30;99.90;;;;;;5104245;27;39723;-61
2022/09/12 02:27:03;;;;;;;14.27;7.47;;;15.20;99.90;;;;;;5105935;27;37216;-58
2022/09/12 02:29:30;;;;;;;14.45;6.93;;;15.20;99.90;;;;;;5103686;27;37262;-58
2022/09/12 02:32:04;;;;;;;6.82;5.75;;;15.10;99.90;;;;;;5104733;27;37134;-58
2022/09/12 02:34:41;;;;;;;9.77;6.45;;;15.10;99.90;;;;;;5104750;27;39411;-58
2022/09/12 02:37:18;;;;;;;9.80;6.35;;;15.10;99.90;;;;;;5102860;27;37368;-59
2022/09/12 02:39:45;;;;;;;11.73;7.10;;;15.10;99.90;;;;;;5104814;27;37691;-58
2022/09/12 02:42:13;;;;;;;11.27;5.82;;;15.10;99.90;;;;;;5103193;27;38947;-58
2022/09/12 02:44:41;;;;;;;42.03;6.95;;;15.10;99.90;;;;;;5104672;27;38445;-58
2022/09/12 02:47:15;;;;;;;7.63;5.90;;;15.00;99.90;;;;;;5103879;27;38535;-58
2022/09/12 02:49:43;;;;;;;8.05;4.97;;;15.00;99.90;;;;;;5105631;27;36825;-61
2022/09/12 02:52:10;;;;;;;9.52;6.15;;;15.00;99.90;;;;;;5104988;27;36368;-61
2022/09/12 02:54:38;;;;;;;14.77;5.68;;;14.90;99.90;;;;;;5105609;27;38628;-61
2022/09/12 02:57:15;;;;;;;7.43;3.80;;;14.90;99.90;;;;;;5105411;27;38551;-61
2022/09/12 02:59:42;;;;;;;4.75;3.53;;;14.90;99.90;;;;;;5104212;27;35460;-61
2022/09/12 03:02:24;;;;;;;4.85;3.20;;;14.90;99.90;;;;;;5106605;27;37570;-61
2022/09/12 03:05:08;;;;;;;13.73;3.55;;;14.80;99.90;;;;;;5105506;27;38788;-61
2022/09/12 03:07:53;;;;;;;7.28;3.97;;;14.70;99.90;;;;;;5104716;27;36333;-61
2022/09/12 03:10:28;;;;;;;11.43;3.95;;;14.70;99.90;;;;;;5105488;27;36683;-61
2022/09/12 03:13:09;;;;;;;8.05;3.25;;;14.70;99.90;;;;;;5105255;27;37521;-61
2022/09/12 03:15:49;;;;;;;6.65;3.42;;;14.60;99.90;;;;;;5104971;27;38098;-58
2022/09/12 03:18:30;;;;;;;13.13;4.53;;;14.60;99.90;;;;;;5104979;27;39111;-58
2022/09/12 03:21:04;;;;;;;14.43;4.28;;;14.60;99.90;;;;;;5105361;27;35293;-58
2022/09/12 03:23:38;;;;;;;5.57;3.53;;;14.50;99.90;;;;;;5105306;27;37801;-58
2022/09/12 03:26:12;;;;;;;8.45;4.13;;;14.50;99.90;;;;;;5104712;27;39165;-58
2022/09/12 03:28:42;;;;;;;5.97;4.30;;;14.50;99.90;;;;;;5104295;27;39237;-58
2022/09/12 03:31:14;;;;;;;13.02;4.10;;;14.50;99.90;;;;;;5104624;27;36704;-58
2022/09/12 03:33:43;;;;;;;6.63;3.85;;;14.50;99.90;;;;;;5103612;27;37826;-58
2022/09/12 03:36:15;;;;;;;10.45;5.07;;;14.40;99.90;;;;;;5104101;27;38156;-58
2022/09/12 03:38:43;;;;;;;5.88;4.18;;;14.40;99.90;;;;;;5103056;27;37541;-58
2022/09/12 03:41:10;;;;;;;7.47;5.95;;;14.40;99.90;;;;;;5104418;27;35327;-58
2022/09/12 03:43:37;;;;;;;6.57;5.32;;;14.40;99.90;;;;;;5104249;27;39502;-58
2022/09/12 03:46:05;;;;;;;10.27;6.00;;;14.40;99.90;;;;;;5105550;27;38064;-58
2022/09/12 03:48:32;;;;;;;5.53;3.90;;;14.40;99.90;;;;;;5103158;27;36636;-58
2022/09/12 03:51:02;;;;;;;5.40;3.55;;;14.40;99.90;;;;;;5103649;27;35013;-58
2022/09/12 03:53:29;;;;;;;7.88;3.90;;;14.40;99.90;;;;;;5102945;27;36268;-58
2022/09/12 03:55:56;;;;;;;5.03;3.80;;;14.30;99.90;;;;;;5102961;27;38734;-58
2022/09/12 03:58:24;;;;;;;7.60;5.90;;;14.30;99.90;;;;;;5103961;27;37719;-58
2022/09/12 04:00:52;;;;;;;8.73;6.50;;;14.30;99.90;;;;;;5104730;27;38116;-58
2022/09/12 04:03:19;;;;;;;8.90;6.35;;;14.20;99.90;;;;;;5103391;27;37926;-58
2022/09/12 04:05:47;;;;;;;9.73;5.65;;;14.20;99.90;;;;;;5103311;27;37861;-58
2022/09/12 04:08:16;;;;;;;7.45;5.45;;;14.20;99.90;;;;;;5104570;27;38462;-58
2022/09/12 04:10:43;;;;;;;8.25;6.13;;;14.10;99.90;;;;;;5104554;27;35383;-58
2022/09/12 04:13:10;;;;;;;8.38;6.60;;;14.20;99.90;;;;;;5104389;27;37697;-58
2022/09/12 04:15:37;;;;;;;7.97;5.80;;;14.20;99.90;;;;;;5104631;27;38147;-58
2022/09/12 04:18:05;;;;;;;8.35;7.00;;;14.20;99.90;;;;;;5102687;27;36542;-58
2022/09/12 04:20:32;;;;;;;9.15;7.60;;;14.20;99.90;;;;;;5104030;27;36571;-58
2022/09/12 04:23:00;;;;;;;9.95;7.22;;;14.20;99.90;;;;;;5104825;27;37582;-58
2022/09/12 04:25:30;;;;;;;8.65;6.95;;;14.30;99.90;;;;;;5103976;27;39586;-58
2022/09/12 04:27:57;;;;;;;10.63;8.20;;;14.30;99.90;;;;;;5104641;27;37999;-58
2022/09/12 04:30:24;;;;;;;9.88;7.55;;;14.40;99.90;;;;;;5103290;27;35376;-58
2022/09/12 04:32:51;;;;;;;11.10;8.85;;;14.40;99.90;;;;;;5103057;27;37547;-58
2022/09/12 04:35:19;;;;;;;13.82;10.00;;;14.50;99.90;;;;;;5102181;27;37585;-58
2022/09/12 04:37:46;;;;;;;13.63;9.82;;;14.50;99.90;;;;;;5104626;27;39113;-58
2022/09/12 04:40:13;;;;;;;12.45;10.13;;;14.50;99.90;;;;;;5102450;27;37534;-58
2022/09/12 04:42:42;;;;;;;12.95;11.25;;;14.60;99.90;;;;;;5104692;27;36255;-61
2022/09/12 04:45:10;;;;;;;19.23;12.70;;;14.60;99.90;;;;;;5104525;27;38363;-58
2022/09/12 04:47:37;;;;;;;15.88;12.93;;;14.60;99.90;;;;;;5103583;27;36674;-58
2022/09/12 04:50:05;;;;;;;21.15;14.57;;;14.70;99.90;;;;;;5102792;27;36645;-58
2022/09/12 04:52:32;;;;;;;16.30;14.07;;;14.80;99.90;;;;;;5102365;27;37449;-58
2022/09/12 04:55:00;;;;;;;17.05;14.20;;;14.80;99.90;;;;;;5103941;27;40121;-58
2022/09/12 04:57:27;;;;;;;20.10;15.85;;;14.80;99.90;;;;;;5103106;27;37804;-58
2022/09/12 04:59:56;;;;;;;17.05;15.13;;;14.80;99.90;;;;;;5103919;27;36746;-58
2022/09/12 05:02:23;;;;;;;19.50;15.35;;;14.90;99.90;;;;;;5103475;27;38373;-58
2022/09/12 05:04:51;;;;;;;18.85;15.38;;;14.90;99.90;;;;;;5103418;27;38011;-58
2022/09/12 05:07:18;;;;;;;21.63;15.50;;;15.00;99.90;;;;;;5100534;27;38732;-58
2022/09/12 05:09:46;;;;;;;21.60;17.10;;;15.00;99.90;;;;;;5102620;27;36944;-58
2022/09/12 05:12:13;;;;;;;17.85;15.90;;;15.00;99.90;;;;;;5100337;27;36343;-58
2022/09/12 05:14:41;;;;;;;20.88;16.40;;;15.00;99.90;;;;;;5101421;27;40353;-58
2022/09/12 05:17:10;;;;;;;21.25;17.17;;;15.10;99.90;;;;;;5102347;27;38075;-58
2022/09/12 05:19:38;;;;;;;20.23;16.92;;;15.10;99.90;;;;;;5105399;27;36667;-58
2022/09/12 05:22:05;;;;;;;21.73;16.52;;;15.10;99.90;;;;;;5105414;27;37565;-58
2022/09/12 05:24:34;;;;;;;21.40;15.88;;;15.20;99.90;;;;;;5103262;27;38518;-58
2022/09/12 05:27:02;;;;;;;22.77;19.15;;;15.20;99.90;;;;;;5105232;27;37860;-58
2022/09/12 05:29:29;;;;;;;20.20;16.77;;;15.30;99.90;;;;;;5106519;27;36721;-58
2022/09/12 05:31:57;;;;;;;21.30;15.70;;;15.30;99.90;;;;;;5105514;27;37785;-58
2022/09/12 05:34:26;;;;;;;23.02;17.75;;;15.40;99.90;;;;;;5105508;27;36855;-58
2022/09/12 05:36:54;;;;;;;20.48;16.45;;;15.40;99.90;;;;;;5105553;27;38775;-58
2022/09/12 05:39:21;;;;;;;18.77;16.45;;;15.40;99.90;;;;;;5105972;27;35679;-58
2022/09/12 05:41:48;;;;;;;20.92;16.20;;;15.40;99.90;;;;;;5105281;27;37624;-58
2022/09/12 05:44:16;;;;;;;21.17;17.60;;;15.40;99.90;;;;;;5107255;27;39291;-58
2022/09/12 05:46:47;;;;;;;21.45;16.90;;;15.40;99.90;;;;;;5106885;27;37959;-58
2022/09/12 05:49:14;;;;;;;19.63;15.90;;;15.40;99.90;;;;;;5107462;27;37068;-58
2022/09/12 05:51:45;;;;;;;22.40;17.80;;;15.30;99.90;;;;;;5106082;27;37421;-58
2022/09/12 05:54:14;;;;;;;20.77;16.35;;;15.40;99.90;;;;;;5105783;27;38921;-58
2022/09/12 05:56:43;;;;;;;23.30;17.70;;;15.40;99.90;;;;;;5104839;27;38012;-58
2022/09/12 05:59:12;;;;;;;20.35;16.27;;;15.40;99.90;;;;;;5106196;27;37069;-58
2022/09/12 06:01:40;;;;;;;20.40;16.70;;;15.40;99.90;;;;;;5106434;27;37877;-58
2022/09/12 06:04:09;;;;;;;24.50;18.90;;;15.40;99.90;;;;;;5106164;27;38548;-58
2022/09/12 06:06:38;;;;;;;22.58;16.58;;;15.40;99.90;;;;;;5106636;27;38205;-58
2022/09/12 06:09:07;;;;;;;24.38;18.05;;;15.40;99.90;;;;;;5104264;27;35663;-58
2022/09/12 06:11:36;;;;;;;21.00;16.63;;;15.40;99.90;;;;;;5105307;27;36362;-58
2022/09/12 06:14:04;;;;;;;20.30;16.88;;;15.40;99.90;;;;;;5104408;27;38066;-58
2022/09/12 06:16:34;;;;;;;22.70;17.02;;;15.40;99.90;;;;;;5105927;27;36686;-58
2022/09/12 06:19:03;;;;;;;21.05;17.50;;;15.40;99.90;;;;;;5106325;27;36977;-58
2022/09/12 06:21:31;;;;;;;23.27;18.00;;;15.50;99.90;;;;;;5105470;27;38501;-58
2022/09/12 06:23:58;;;;;;;22.30;17.48;;;15.50;99.90;;;;;;5105276;27;39751;-58
2022/09/12 06:26:28;;;;;;;22.02;17.75;;;15.50;99.90;;;;;;5104824;27;37594;-58
2022/09/12 06:28:56;;;;;;;22.40;17.95;;;15.50;99.90;;;;;;5104153;27;35657;-58
2022/09/12 06:31:26;;;;;;;28.38;18.15;;;15.60;99.90;;;;;;5104884;27;36275;-58
2022/09/12 06:33:54;;;;;;;21.60;17.98;;;15.60;99.90;;;;;;5106643;27;37978;-58
2022/09/12 06:36:27;;;;;;;23.15;18.25;;;15.60;99.90;;;;;;5104466;27;37300;-58
2022/09/12 06:38:56;;;;;;;25.85;20.05;;;15.60;99.90;;;;;;5105384;27;37652;-58
2022/09/12 06:41:25;;;;;;;25.70;20.10;;;15.60;99.90;;;;;;5105976;27;38630;-58
2022/09/12 06:43:55;;;;;;;27.67;20.67;;;15.60;99.90;;;;;;5103846;27;38717;-58
2022/09/12 06:46:22;;;;;;;26.85;20.80;;;15.70;99.90;;;;;;5102874;27;37988;-58
2022/09/12 06:48:49;;;;;;;28.23;21.50;;;15.70;99.90;;;;;;5101140;27;37310;-58
2022/09/12 06:51:18;;;;;;;28.73;22.30;;;15.70;99.90;;;;;;5100647;27;38591;-61
2022/09/12 06:53:47;;;;;;;27.50;21.38;;;15.70;99.90;;;;;;5102332;27;38930;-61
2022/09/12 06:56:16;;;;;;;30.75;22.77;;;15.70;99.90;;;;;;5103746;27;40519;-61
2022/09/12 06:58:43;;;;;;;31.98;24.45;;;15.80;99.90;;;;;;5102565;27;36940;-58
2022/09/12 07:01:15;;;;;;;34.53;23.88;;;15.70;99.90;;;;;;5101922;27;37568;-59
2022/09/12 07:03:43;;;;;;;33.38;25.45;;;15.80;99.90;;;;;;5103107;27;37935;-58
2022/09/12 07:06:13;;;;;;;34.33;25.25;;;15.80;99.90;;;;;;5104267;27;38320;-58
2022/09/12 07:08:40;;;;;;;33.65;25.52;;;15.80;99.90;;;;;;5103257;27;36680;-58
2022/09/12 07:11:13;;;;;;;33.00;24.08;;;15.90;99.90;;;;;;5102809;27;37977;-58
2022/09/12 07:13:40;;;;;;;33.40;25.48;;;15.90;99.90;;;;;;5104499;27;38366;-58
2022/09/12 07:16:08;;;;;;;33.72;25.15;;;15.90;99.90;;;;;;5102741;27;38205;-58
2022/09/12 07:18:38;;;;;;;35.28;26.00;;;15.90;99.90;;;;;;5103571;27;37764;-58
2022/09/12 07:21:08;;;;;;;36.50;26.50;;;16.00;99.90;;;;;;5103365;27;36214;-58
2022/09/12 07:23:36;;;;;;;32.38;25.42;;;16.00;99.90;;;;;;5103311;27;39373;-58
2022/09/12 07:26:04;;;;;;;33.97;25.98;;;16.10;99.90;;;;;;5103059;27;38669;-58
2022/09/12 07:28:34;;;;;;;36.03;26.77;;;16.10;99.90;;;;;;5102704;27;35814;-58
2022/09/12 07:31:07;;;;;;;35.65;24.80;;;16.10;99.90;;;;;;5103910;27;38569;-58
2022/09/12 07:33:35;;;;;;;36.70;26.65;;;16.10;99.90;;;;;;5104322;27;38867;-58
2022/09/12 07:36:05;;;;;;;38.83;26.63;;;16.20;99.90;;;;;;5103103;27;37899;-58
2022/09/12 07:38:32;;;;;;;40.53;25.90;;;16.20;99.90;;;;;;5103061;27;36765;-58
2022/09/12 07:41:00;;;;;;;43.38;28.67;;;16.20;99.90;;;;;;5102271;27;36423;-58
2022/09/12 07:43:28;;;;;;;38.60;28.67;;;16.30;99.90;;;;;;5103091;27;38017;-58
2022/09/12 07:45:55;;;;;;;41.22;26.63;;;16.30;99.90;;;;;;5104022;27;38015;-58
2022/09/12 07:48:23;;;;;;;46.10;31.15;;;16.30;99.90;;;;;;5100142;27;36669;-58
2022/09/12 07:50:58;;;;;;;40.92;28.45;;;16.30;99.90;;;;;;5102914;27;37510;-58
2022/09/12 07:53:30;;;;;;;43.78;29.85;;;16.40;99.90;;;;;;5103212;27;36935;-58
2022/09/12 07:55:58;;;;;;;41.83;29.63;;;16.40;99.90;;;;;;5102716;27;38012;-58
2022/09/12 07:58:25;;;;;;;42.33;30.00;;;16.40;99.90;;;;;;5101745;27;36936;-58
2022/09/12 08:00:53;;;;;;;43.55;30.13;;;16.50;99.90;;;;;;5100035;27;38934;-58
2022/09/12 08:03:20;;;;;;;43.15;30.90;;;16.50;99.90;;;;;;5102447;27;36839;-58
2022/09/12 08:05:47;;;;;;;41.00;28.80;;;16.50;99.90;;;;;;5102247;27;38818;-58
2022/09/12 08:08:14;;;;;;;45.55;31.75;;;16.50;99.90;;;;;;5101571;27;36985;-58
2022/09/12 08:10:43;;;;;;;49.25;31.70;;;16.60;99.90;;;;;;5099937;27;39206;-58
2022/09/12 08:13:10;;;;;;;44.28;31.58;;;16.60;99.90;;;;;;5101406;27;37864;-58
2022/09/12 08:15:38;;;;;;;46.80;32.80;;;16.60;99.90;;;;;;5101579;27;38875;-58
2022/09/12 08:18:05;;;;;;;48.53;33.97;;;16.60;99.90;;;;;;5102145;27;35567;-58
2022/09/12 08:20:32;;;;;;;47.13;33.47;;;16.70;99.90;;;;;;5102059;27;39320;-58
2022/09/12 08:23:00;;;;;;;48.35;33.97;;;16.70;99.90;;;;;;5102403;27;38293;-58
2022/09/12 08:25:27;;;;;;;50.72;34.10;;;16.70;99.90;;;;;;5103402;27;37599;-58
2022/09/12 08:27:56;;;;;;;53.92;35.30;;;16.80;99.90;;;;;;5102634;27;36869;-58
2022/09/12 08:30:23;;;;;;;52.45;35.40;;;16.80;99.90;;;;;;5101203;27;38574;-58
2022/09/12 08:32:51;;;;;;;48.70;34.60;;;16.80;99.90;;;;;;5100607;27;39652;-58
2022/09/12 08:35:18;;;;;;;50.65;35.80;;;16.90;99.90;;;;;;5100718;27;37634;-58
2022/09/12 08:37:45;;;;;;;48.83;33.58;;;16.90;99.90;;;;;;5100598;27;36725;-58
2022/09/12 08:40:17;;;;;;;51.95;35.17;;;17.00;99.90;;;;;;5100843;27;37633;-58
2022/09/12 08:42:54;;;;;;;49.83;34.30;;;17.00;99.90;;;;;;5101705;27;39029;-58
2022/09/12 08:45:33;;;;;;;48.17;33.17;;;17.10;99.90;;;;;;5100907;27;36640;-58
2022/09/12 08:48:04;;;;;;;51.10;34.45;;;17.20;99.90;;;;;;5102354;27;36739;-58
2022/09/12 08:50:32;;;;;;;49.72;34.65;;;17.20;99.90;;;;;;5100672;27;38927;-58
2022/09/12 08:53:02;;;;;;;49.97;33.63;;;17.30;99.90;;;;;;5104262;27;38157;-58
2022/09/12 08:55:33;;;;;;;53.05;34.83;;;17.30;99.90;;;;;;5105897;27;37462;-58
2022/09/12 08:58:02;;;;;;;52.25;36.08;;;17.30;99.90;;;;;;5103986;27;36652;-58
2022/09/12 09:00:40;;;;;;;52.75;33.80;;;17.30;99.90;;;;;;5105369;27;37195;-61
2022/09/12 09:03:43;;;;;;;51.42;34.22;;;17.40;99.90;;;;;;5104707;27;38167;-61
2022/09/12 09:06:25;;;;;;;48.63;31.98;;;17.40;99.90;;;;;;5072170;27;36719;-61
2022/09/12 09:09:03;;;;;;;49.22;33.88;;;17.50;99.90;;;;;;5106487;27;37077;-60
2022/09/12 09:11:51;;;;;;;51.95;34.05;;;17.60;99.90;;;;;;5106741;27;37154;-61
2022/09/12 09:14:47;;;;;;;50.33;33.92;;;17.70;99.90;;;;;;5105166;27;39070;-61
2022/09/12 09:17:20;;;;;;;48.97;32.97;;;17.80;99.90;;;;;;5106575;27;39014;-61
2022/09/12 09:19:52;;;;;;;44.58;32.53;;;17.90;99.90;;;;;;5105330;27;37172;-61
2022/09/12 09:22:28;;;;;;;47.42;32.05;;;18.00;99.90;;;;;;5107149;27;36343;-62
2022/09/12 09:25:02;;;;;;;46.38;32.58;;;18.00;99.90;;;;;;5105847;27;40146;-61
2022/09/12 09:27:33;;;;;;;46.50;32.08;;;18.00;99.90;;;;;;5105042;27;38464;-61
2022/09/12 09:30:02;;;;;;;47.13;30.95;;;18.10;99.90;;;;;;5106157;27;36877;-61
2022/09/12 09:32:35;;;;;;;46.92;31.35;;;18.10;99.90;;;;;;5106596;27;37411;-61
2022/09/12 09:35:03;;;;;;;;;;;18.30;99.90;;;;;;5107024;27;38527;-61
2022/09/12 09:37:38;;;;;;;41.22;29.08;;;18.40;99.90;;;;;;5106752;27;37332;-61
2022/09/12 09:40:17;;;;;;;42.90;29.40;;;18.50;99.90;;;;;;5105680;27;36234;-61
2022/09/12 09:42:52;;;;;;;44.97;30.67;;;18.60;99.90;;;;;;5104660;27;36352;-58
2022/09/12 09:45:24;;;;;;;49.33;30.27;;;18.70;99.90;;;;;;5105155;27;38085;-58
2022/09/12 09:47:57;;;;;;;42.75;29.15;;;18.90;99.90;;;;;;5105302;27;38196;-58
2022/09/12 09:50:25;;;;;;;42.65;29.40;;;19.00;99.90;;;;;;5104467;27;36842;-58
2022/09/12 09:52:55;;;;;;;43.80;30.13;;;19.10;99.90;;;;;;5105201;27;37460;-58
2022/09/12 09:55:28;;;;;;;43.25;31.30;;;19.20;99.90;;;;;;5105755;27;38124;-61
2022/09/12 09:57:55;;;;;;;42.83;29.83;;;19.30;99.90;;;;;;5105832;27;37246;-61
2022/09/12 10:00:31;;;;;;;42.40;30.42;;;19.40;99.90;;;;;;5105520;27;37790;-61
2022/09/12 10:03:19;;;;;;;42.65;28.73;;;19.60;99.90;;;;;;5105467;27;40463;-61
2022/09/12 10:05:49;;;;;;;42.33;28.95;;;19.70;99.90;;;;;;5101814;27;38663;-59
2022/09/12 10:08:25;;;;;;;39.85;27.38;;;19.90;99.90;;;;;;5103987;27;37944;-61
2022/09/12 10:10:57;;;;;;;34.40;23.58;;;20.10;99.90;;;;;;5104437;27;37311;-58
2022/09/12 10:13:30;;;;;;;36.78;23.90;;;20.30;99.90;;;;;;5104508;27;39077;-59
2022/09/12 10:16:00;;;;;;;38.60;23.65;;;20.30;99.90;;;;;;5104506;27;37909;-59
2022/09/12 10:18:36;;;;;;;31.83;20.83;;;20.40;99.90;;;;;;5104084;27;38685;-58
2022/09/12 10:21:17;;;;;;;30.85;19.65;;;20.50;99.90;;;;;;5104839;27;35498;-58
2022/09/12 10:23:46;;;;;;;30.20;19.05;;;20.50;99.90;;;;;;5105092;27;36245;-58
2022/09/12 10:26:16;;;;;;;29.55;20.27;;;20.60;99.90;;;;;;5105729;27;39510;-61
2022/09/12 10:28:47;;;;;;;31.23;20.33;;;20.70;99.90;;;;;;5106620;27;38458;-61
2022/09/12 10:31:17;;;;;;;34.00;22.23;;;20.70;99.90;;;;;;5105394;27;36783;-58
2022/09/12 10:33:51;;;;;;;26.88;18.38;;;20.80;99.90;;;;;;5104337;27;36204;-58
2022/09/12 10:36:19;;;;;;;27.90;18.17;;;20.80;99.90;;;;;;5105489;27;37813;-61
2022/09/12 10:38:51;;;;;;;28.05;18.20;;;20.90;99.90;;;;;;5104076;27;38478;-58
2022/09/12 10:41:19;;;;;;;25.85;17.02;;;20.90;99.90;;;;;;5105044;27;38759;-61
2022/09/12 10:43:46;;;;;;;23.00;16.92;;;21.00;99.90;;;;;;5105045;27;38953;-61
2022/09/12 10:46:29;;;;;;;22.85;15.00;;;21.10;99.90;;;;;;5105624;27;37530;-61
2022/09/12 10:49:39;;;;;;;23.20;15.82;;;21.20;99.90;;;;;;5103234;27;40083;-59
2022/09/12 10:52:23;;;;;;;28.17;16.77;;;21.40;99.90;;;;;;5104169;27;37249;-58
2022/09/12 10:54:50;;;;;;;26.08;16.98;;;21.50;99.90;;;;;;5103704;27;37472;-61
2022/09/12 10:57:49;;;;;;;26.42;17.30;;;21.50;99.90;;;;;;5103287;27;39121;-58
2022/09/12 11:00:26;;;;;;;26.08;16.85;;;21.60;99.70;;;;;;5104492;27;37718;-58
2022/09/12 11:03:05;;;;;;;25.73;16.58;;;21.70;99.90;;;;;;5103454;27;35510;-58
2022/09/12 11:05:51;;;;;;;24.05;15.77;;;21.70;99.70;;;;;;5104149;27;37343;-61
2022/09/12 11:08:39;;;;;;;20.58;14.30;;;21.80;99.30;;;;;;5103576;27;38335;-61
2022/09/12 11:11:12;;;;;;;22.05;12.85;;;21.90;99.30;;;;;;5103423;27;37902;-59
2022/09/12 11:13:55;;;;;;;20.23;13.68;;;22.00;99.20;;;;;;5100269;27;36897;-61
2022/09/12 11:16:32;;;;;;;18.67;12.00;;;22.10;98.80;;;;;;5100229;27;37258;-61
2022/09/12 11:19:41;;;;;;;19.90;12.30;;;22.10;98.40;;;;;;5102018;27;39991;-60
2022/09/12 11:22:28;;;;;;;19.10;12.05;;;22.10;97.80;;;;;;5054220;27;38511;-61
2022/09/12 11:25:21;;;;;;;18.95;11.80;;;22.20;97.40;;;;;;5103512;27;37689;-61
2022/09/12 11:27:57;;;;;;;;;;;22.30;97.80;;;;;;5103613;27;37647;-61
2022/09/12 11:30:24;;;;;;;15.30;9.15;;;22.30;98.30;;;;;;5103089;27;37063;-61
2022/09/12 11:33:07;;;;;;;17.80;11.27;;;22.30;98.40;;;;;;5100958;27;38709;-61
2022/09/12 11:35:39;;;;;;;15.32;9.10;;;22.30;97.50;;;;;;5103309;27;37204;-61
2022/09/12 11:38:39;;;;;;;13.27;8.32;;;22.40;97.00;;;;;;5101817;27;40689;-61
2022/09/12 11:41:11;;;;;;;15.35;10.10;;;22.30;96.60;;;;;;5089562;27;38327;-61
2022/09/12 11:43:43;;;;;;;15.38;10.10;;;22.20;96.50;;;;;;5102718;27;36824;-61
2022/09/12 11:46:18;;;;;;;10.68;6.35;;;22.20;96.80;;;;;;5102911;27;36806;-61
2022/09/12 11:48:55;;;;;;;11.25;6.05;;;22.10;96.80;;;;;;5102766;27;37628;-61
2022/09/12 11:51:27;;;;;;;11.27;6.15;;;22.10;96.20;;;;;;5102651;27;39341;-61
2022/09/12 11:54:04;;;;;;;11.07;6.75;;;22.20;96.30;;;;;;5102499;27;39007;-62
2022/09/12 11:56:34;;;;;;;11.73;6.43;;;22.10;96.60;;;;;;5103094;27;36412;-61
2022/09/12 11:59:09;;;;;;;10.57;6.47;;;22.20;96.80;;;;;;5101308;27;37407;-61
2022/09/12 12:01:41;;;;;;;10.18;6.65;;;22.20;96.70;;;;;;5102729;27;38219;-61
2022/09/12 12:04:12;;;;;;;12.20;7.00;;;22.20;96.70;;;;;;5102655;27;38097;-61
2022/09/12 12:06:48;;;;;;;10.15;6.20;;;22.20;96.60;;;;;;5102433;27;36936;-61
2022/09/12 12:09:17;;;;;;;12.00;7.78;;;22.10;96.30;;;;;;5103395;27;37707;-61
2022/09/12 12:11:50;;;;;;;10.18;6.78;;;22.10;96.10;;;;;;5103917;27;39132;-61
2022/09/12 12:14:21;;;;;;;9.73;5.93;;;22.00;96.20;;;;;;5102698;27;37231;-61
2022/09/12 12:16:49;;;;;;;11.30;5.18;;;22.00;96.20;;;;;;5103127;27;37181;-61
2022/09/12 12:19:34;;;;;;;9.25;5.75;;;22.00;96.40;;;;;;5101266;27;37316;-61
2022/09/12 12:22:16;;;;;;;8.77;5.88;;;22.00;96.00;;;;;;5102605;27;37027;-61
2022/09/12 12:25:05;;;;;;;8.68;4.93;;;22.00;95.70;;;;;;5102852;27;38630;-61
2022/09/12 12:27:54;;;;;;;13.25;7.40;;;22.10;95.60;;;;;;5105062;27;38118;-61
2022/09/12 12:31:04;;;;;;;13.52;7.53;;;22.10;95.40;;;;;;5107497;27;38600;-61
2022/09/12 12:34:08;;;;;;;12.27;6.07;;;22.10;95.30;;;;;;5105640;27;38269;-61
2022/09/12 12:36:40;;;;;;;8.98;5.55;;;22.00;96.10;;;;;;5105416;27;37837;-61
2022/09/12 12:39:54;;;;;;;14.88;8.15;;;22.00;96.20;;;;;;5107002;27;36541;-61
2022/09/12 12:43:04;;;;;;;10.68;6.20;;;22.00;96.10;;;;;;5106223;27;37594;-61
2022/09/12 12:46:16;;;;;;;9.05;4.63;;;21.90;96.30;;;;;;5104723;27;36884;-61
2022/09/12 12:48:52;;;;;;;7.75;4.18;;;21.90;95.60;;;;;;5104440;27;39742;-61
2022/09/12 12:51:36;;;;;;;7.53;4.68;;;21.90;95.70;;;;;;5104497;27;37956;-61
2022/09/12 12:54:25;;;;;;;8.23;4.95;;;21.90;95.50;;;;;;5106401;27;37382;-61
2022/09/12 12:57:06;;;;;;;9.30;5.22;;;21.90;95.50;;;;;;5105293;27;37315;-61
2022/09/12 12:59:34;;;;;;;9.88;5.65;;;21.90;95.50;;;;;;5106723;27;36776;-61
2022/09/12 13:02:04;;;;;;;10.98;5.65;;;22.00;95.50;;;;;;5105749;27;37193;-61
2022/09/12 13:04:32;;;;;;;10.82;5.88;;;22.00;95.10;;;;;;5104678;27;38176;-61